sensor_id;sensor_type;location;lat;lon;timestamp;P1;durP1;ratioP1;P2;durP2;ratioP2
51190;SDS011;37253;48.736;9.294;2023-03-23T00:01:10;0.88;;;0.70;;
51190;SDS011;37253;48.736;9.294;2023-03-23T00:03:12;4.65;;;1.00;;
51190;SDS011;37253;48.736;9.294;2023-03-23T00:05:13;1.13;;;0.90;;
51190;SDS011;37253;48.736;9.294;2023-03-23T00:07:14;3.10;;;1.00;;
51190;SDS011;37253;48.736;9.294;2023-03-23T00:09:20;1.65;;;0.80;;
51190;SDS011;37253;48.736;9.294;2023-03-23T00:11:28;1.42;;;0.90;;
51190;SDS011;37253;48.736;9.294;2023-03-23T00:13:29;0.93;;;0.85;;
51190;SDS011;37253;48.736;9.294;2023-03-23T00:15:30;2.17;;;0.90;;
51190;SDS011;37253;48.736;9.294;2023-03-23T00:17:35;1.10;;;0.90;;
51190;SDS011;37253;48.736;9.294;2023-03-23T00:19:39;1.60;;;0.93;;
51190;SDS011;37253;48.736;9.294;2023-03-23T00:21:48;1.88;;;1.00;;
51190;SDS011;37253;48.736;9.294;2023-03-23T00:23:48;1.83;;;1.10;;
51190;SDS011;37253;48.736;9.294;2023-03-23T00:25:50;1.77;;;0.88;;
51190;SDS011;37253;48.736;9.294;2023-03-23T00:27:56;2.00;;;0.90;;
51190;SDS011;37253;48.736;9.294;2023-03-23T00:29:56;1.48;;;0.95;;
51190;SDS011;37253;48.736;9.294;2023-03-23T00:31:57;3.40;;;1.10;;
51190;SDS011;37253;48.736;9.294;2023-03-23T00:33:58;1.77;;;0.90;;
51190;SDS011;37253;48.736;9.294;2023-03-23T00:36:00;1.40;;;0.90;;
51190;SDS011;37253;48.736;9.294;2023-03-23T00:38:01;1.33;;;0.90;;
51190;SDS011;37253;48.736;9.294;2023-03-23T00:40:02;1.13;;;0.93;;
51190;SDS011;37253;48.736;9.294;2023-03-23T00:42:06;1.80;;;1.00;;
51190;SDS011;37253;48.736;9.294;2023-03-23T00:44:08;1.02;;;0.70;;
51190;SDS011;37253;48.736;9.294;2023-03-23T00:46:09;1.75;;;1.08;;
51190;SDS011;37253;48.736;9.294;2023-03-23T00:48:09;1.20;;;0.80;;
51190;SDS011;37253;48.736;9.294;2023-03-23T00:50:12;1.15;;;0.77;;
51190;SDS011;37253;48.736;9.294;2023-03-23T00:52:13;1.55;;;0.98;;
51190;SDS011;37253;48.736;9.294;2023-03-23T00:54:14;1.00;;;0.90;;
51190;SDS011;37253;48.736;9.294;2023-03-23T00:56:14;1.23;;;0.90;;
51190;SDS011;37253;48.736;9.294;2023-03-23T00:58:16;1.65;;;1.00;;
51190;SDS011;37253;48.736;9.294;2023-03-23T01:00:17;1.38;;;0.95;;
51190;SDS011;37253;48.736;9.294;2023-03-23T01:02:19;3.77;;;1.00;;
51190;SDS011;37253;48.736;9.294;2023-03-23T01:04:19;0.98;;;0.80;;
51190;SDS011;37253;48.736;9.294;2023-03-23T01:06:20;1.55;;;1.00;;
51190;SDS011;37253;48.736;9.294;2023-03-23T01:08:21;1.25;;;1.00;;
51190;SDS011;37253;48.736;9.294;2023-03-23T01:10:22;1.35;;;0.93;;
51190;SDS011;37253;48.736;9.294;2023-03-23T01:12:26;1.13;;;0.90;;
51190;SDS011;37253;48.736;9.294;2023-03-23T01:14:26;3.47;;;0.90;;
51190;SDS011;37253;48.736;9.294;2023-03-23T01:16:27;1.45;;;0.90;;
51190;SDS011;37253;48.736;9.294;2023-03-23T01:18:27;2.00;;;0.82;;
51190;SDS011;37253;48.736;9.294;2023-03-23T01:20:28;1.70;;;0.90;;
51190;SDS011;37253;48.736;9.294;2023-03-23T01:22:31;0.93;;;0.77;;
51190;SDS011;37253;48.736;9.294;2023-03-23T01:24:32;1.15;;;0.80;;
51190;SDS011;37253;48.736;9.294;2023-03-23T01:26:32;1.45;;;0.73;;
51190;SDS011;37253;48.736;9.294;2023-03-23T01:28:34;1.30;;;1.10;;
51190;SDS011;37253;48.736;9.294;2023-03-23T01:30:34;1.98;;;1.00;;
51190;SDS011;37253;48.736;9.294;2023-03-23T01:32:35;2.80;;;1.00;;
51190;SDS011;37253;48.736;9.294;2023-03-23T01:34:36;2.58;;;1.00;;
51190;SDS011;37253;48.736;9.294;2023-03-23T01:36:36;1.92;;;0.88;;
51190;SDS011;37253;48.736;9.294;2023-03-23T01:38:37;0.90;;;0.70;;
51190;SDS011;37253;48.736;9.294;2023-03-23T01:40:37;1.25;;;0.90;;
51190;SDS011;37253;48.736;9.294;2023-03-23T01:42:38;1.23;;;0.90;;
51190;SDS011;37253;48.736;9.294;2023-03-23T01:46:39;1.73;;;0.80;;
51190;SDS011;37253;48.736;9.294;2023-03-23T01:48:39;1.02;;;0.85;;
51190;SDS011;37253;48.736;9.294;2023-03-23T01:50:42;1.77;;;1.00;;
51190;SDS011;37253;48.736;9.294;2023-03-23T01:52:46;1.45;;;1.00;;
51190;SDS011;37253;48.736;9.294;2023-03-23T01:54:46;1.23;;;0.82;;
51190;SDS011;37253;48.736;9.294;2023-03-23T01:56:55;1.42;;;0.90;;
51190;SDS011;37253;48.736;9.294;2023-03-23T01:58:59;1.40;;;0.80;;
51190;SDS011;37253;48.736;9.294;2023-03-23T02:01:02;2.13;;;0.80;;
51190;SDS011;37253;48.736;9.294;2023-03-23T02:03:04;1.05;;;0.88;;
51190;SDS011;37253;48.736;9.294;2023-03-23T02:05:07;1.65;;;0.90;;
51190;SDS011;37253;48.736;9.294;2023-03-23T02:07:11;1.13;;;0.82;;
51190;SDS011;37253;48.736;9.294;2023-03-23T02:09:13;1.30;;;0.90;;
51190;SDS011;37253;48.736;9.294;2023-03-23T02:11:18;1.35;;;1.05;;
51190;SDS011;37253;48.736;9.294;2023-03-23T02:15:21;1.77;;;0.98;;
51190;SDS011;37253;48.736;9.294;2023-03-23T02:17:33;1.30;;;0.80;;
51190;SDS011;37253;48.736;9.294;2023-03-23T02:19:55;1.70;;;0.93;;
51190;SDS011;37253;48.736;9.294;2023-03-23T02:22:07;1.30;;;0.87;;
51190;SDS011;37253;48.736;9.294;2023-03-23T02:26:31;2.08;;;1.00;;
51190;SDS011;37253;48.736;9.294;2023-03-23T02:28:42;0.85;;;0.80;;
51190;SDS011;37253;48.736;9.294;2023-03-23T02:35:35;0.93;;;0.80;;
51190;SDS011;37253;48.736;9.294;2023-03-23T02:37:39;4.30;;;1.00;;
51190;SDS011;37253;48.736;9.294;2023-03-23T02:39:52;1.35;;;1.00;;
51190;SDS011;37253;48.736;9.294;2023-03-23T02:42:04;1.63;;;1.00;;
51190;SDS011;37253;48.736;9.294;2023-03-23T02:44:06;1.55;;;0.90;;
51190;SDS011;37253;48.736;9.294;2023-03-23T02:46:08;2.70;;;0.90;;
51190;SDS011;37253;48.736;9.294;2023-03-23T02:48:10;1.65;;;0.98;;
51190;SDS011;37253;48.736;9.294;2023-03-23T02:50:13;1.40;;;0.95;;
51190;SDS011;37253;48.736;9.294;2023-03-23T02:52:16;1.52;;;0.80;;
51190;SDS011;37253;48.736;9.294;2023-03-23T02:54:19;1.27;;;0.82;;
51190;SDS011;37253;48.736;9.294;2023-03-23T02:56:20;1.35;;;1.00;;
51190;SDS011;37253;48.736;9.294;2023-03-23T02:58:21;2.97;;;0.95;;
51190;SDS011;37253;48.736;9.294;2023-03-23T03:00:21;2.72;;;0.93;;
51190;SDS011;37253;48.736;9.294;2023-03-23T03:02:26;1.25;;;0.90;;
51190;SDS011;37253;48.736;9.294;2023-03-23T03:04:28;1.00;;;0.90;;
51190;SDS011;37253;48.736;9.294;2023-03-23T03:06:33;2.10;;;0.80;;
51190;SDS011;37253;48.736;9.294;2023-03-23T03:10:55;2.13;;;0.82;;
51190;SDS011;37253;48.736;9.294;2023-03-23T03:13:09;2.75;;;0.80;;
51190;SDS011;37253;48.736;9.294;2023-03-23T03:17:32;1.33;;;0.90;;
51190;SDS011;37253;48.736;9.294;2023-03-23T03:21:38;1.38;;;0.88;;
51190;SDS011;37253;48.736;9.294;2023-03-23T03:23:42;2.83;;;0.98;;
51190;SDS011;37253;48.736;9.294;2023-03-23T03:25:43;1.00;;;0.90;;
51190;SDS011;37253;48.736;9.294;2023-03-23T03:27:47;0.88;;;0.80;;
51190;SDS011;37253;48.736;9.294;2023-03-23T03:29:51;3.00;;;0.93;;
51190;SDS011;37253;48.736;9.294;2023-03-23T03:31:53;1.15;;;0.90;;
51190;SDS011;37253;48.736;9.294;2023-03-23T03:33:56;0.90;;;0.60;;
51190;SDS011;37253;48.736;9.294;2023-03-23T03:35:58;1.35;;;1.00;;
51190;SDS011;37253;48.736;9.294;2023-03-23T03:38:07;1.30;;;1.00;;
51190;SDS011;37253;48.736;9.294;2023-03-23T03:40:10;1.77;;;0.90;;
51190;SDS011;37253;48.736;9.294;2023-03-23T03:42:13;1.88;;;1.20;;
51190;SDS011;37253;48.736;9.294;2023-03-23T03:44:13;2.30;;;1.00;;
51190;SDS011;37253;48.736;9.294;2023-03-23T03:46:15;1.35;;;0.90;;
51190;SDS011;37253;48.736;9.294;2023-03-23T03:48:15;1.50;;;0.70;;
51190;SDS011;37253;48.736;9.294;2023-03-23T03:50:15;1.55;;;1.00;;
51190;SDS011;37253;48.736;9.294;2023-03-23T03:52:16;1.58;;;1.05;;
51190;SDS011;37253;48.736;9.294;2023-03-23T03:54:17;0.82;;;0.80;;
51190;SDS011;37253;48.736;9.294;2023-03-23T03:56:17;1.08;;;0.98;;
51190;SDS011;37253;48.736;9.294;2023-03-23T03:58:17;1.48;;;1.10;;
51190;SDS011;37253;48.736;9.294;2023-03-23T04:00:18;1.40;;;1.00;;
51190;SDS011;37253;48.736;9.294;2023-03-23T04:02:18;2.17;;;1.10;;
51190;SDS011;37253;48.736;9.294;2023-03-23T04:04:20;2.70;;;1.00;;
51190;SDS011;37253;48.736;9.294;2023-03-23T04:06:21;1.20;;;0.95;;
51190;SDS011;37253;48.736;9.294;2023-03-23T04:08:22;1.33;;;1.00;;
51190;SDS011;37253;48.736;9.294;2023-03-23T04:10:22;2.25;;;1.25;;
51190;SDS011;37253;48.736;9.294;2023-03-23T04:12:23;0.93;;;0.82;;
51190;SDS011;37253;48.736;9.294;2023-03-23T04:14:24;1.00;;;0.80;;
51190;SDS011;37253;48.736;9.294;2023-03-23T04:16:24;1.40;;;0.75;;
51190;SDS011;37253;48.736;9.294;2023-03-23T04:18:26;1.00;;;0.90;;
51190;SDS011;37253;48.736;9.294;2023-03-23T04:20:26;1.00;;;0.90;;
51190;SDS011;37253;48.736;9.294;2023-03-23T04:22:27;1.15;;;0.90;;
51190;SDS011;37253;48.736;9.294;2023-03-23T04:24:30;1.55;;;0.90;;
51190;SDS011;37253;48.736;9.294;2023-03-23T04:26:33;1.50;;;1.00;;
51190;SDS011;37253;48.736;9.294;2023-03-23T04:28:33;1.85;;;1.00;;
51190;SDS011;37253;48.736;9.294;2023-03-23T04:30:33;1.10;;;0.85;;
51190;SDS011;37253;48.736;9.294;2023-03-23T04:32:34;1.10;;;0.80;;
51190;SDS011;37253;48.736;9.294;2023-03-23T04:34:35;1.42;;;1.02;;
51190;SDS011;37253;48.736;9.294;2023-03-23T04:36:36;1.42;;;0.82;;
51190;SDS011;37253;48.736;9.294;2023-03-23T04:38:36;1.00;;;0.90;;
51190;SDS011;37253;48.736;9.294;2023-03-23T04:40:37;1.20;;;0.82;;
51190;SDS011;37253;48.736;9.294;2023-03-23T04:42:38;1.77;;;1.00;;
51190;SDS011;37253;48.736;9.294;2023-03-23T04:44:39;1.55;;;0.93;;
51190;SDS011;37253;48.736;9.294;2023-03-23T04:46:39;1.00;;;0.90;;
51190;SDS011;37253;48.736;9.294;2023-03-23T04:48:39;2.75;;;0.90;;
51190;SDS011;37253;48.736;9.294;2023-03-23T04:50:40;1.45;;;0.90;;
51190;SDS011;37253;48.736;9.294;2023-03-23T04:52:40;1.00;;;0.90;;
51190;SDS011;37253;48.736;9.294;2023-03-23T04:54:44;1.25;;;1.00;;
51190;SDS011;37253;48.736;9.294;2023-03-23T04:56:45;1.33;;;1.10;;
51190;SDS011;37253;48.736;9.294;2023-03-23T04:58:45;1.40;;;0.90;;
51190;SDS011;37253;48.736;9.294;2023-03-23T05:00:46;1.20;;;0.90;;
51190;SDS011;37253;48.736;9.294;2023-03-23T05:02:49;0.95;;;0.82;;
51190;SDS011;37253;48.736;9.294;2023-03-23T05:04:52;0.82;;;0.80;;
51190;SDS011;37253;48.736;9.294;2023-03-23T05:06:52;1.00;;;0.80;;
51190;SDS011;37253;48.736;9.294;2023-03-23T05:08:53;2.25;;;1.00;;
51190;SDS011;37253;48.736;9.294;2023-03-23T05:10:54;0.82;;;0.80;;
51190;SDS011;37253;48.736;9.294;2023-03-23T05:12:55;1.40;;;1.00;;
51190;SDS011;37253;48.736;9.294;2023-03-23T05:14:56;2.45;;;0.90;;
51190;SDS011;37253;48.736;9.294;2023-03-23T05:16:56;1.13;;;0.90;;
51190;SDS011;37253;48.736;9.294;2023-03-23T05:18:56;1.30;;;1.08;;
51190;SDS011;37253;48.736;9.294;2023-03-23T05:21:00;3.03;;;1.05;;
51190;SDS011;37253;48.736;9.294;2023-03-23T05:23:00;2.00;;;1.00;;
51190;SDS011;37253;48.736;9.294;2023-03-23T05:25:01;1.20;;;1.00;;
51190;SDS011;37253;48.736;9.294;2023-03-23T05:27:04;1.00;;;0.85;;
51190;SDS011;37253;48.736;9.294;2023-03-23T05:29:07;1.00;;;0.90;;
51190;SDS011;37253;48.736;9.294;2023-03-23T05:31:08;0.98;;;0.85;;
51190;SDS011;37253;48.736;9.294;2023-03-23T05:33:08;1.10;;;1.00;;
51190;SDS011;37253;48.736;9.294;2023-03-23T05:35:08;1.50;;;0.85;;
51190;SDS011;37253;48.736;9.294;2023-03-23T05:37:09;1.60;;;1.00;;
51190;SDS011;37253;48.736;9.294;2023-03-23T05:39:12;1.52;;;1.10;;
51190;SDS011;37253;48.736;9.294;2023-03-23T05:41:16;1.33;;;1.00;;
51190;SDS011;37253;48.736;9.294;2023-03-23T05:43:16;1.10;;;0.90;;
51190;SDS011;37253;48.736;9.294;2023-03-23T05:45:17;1.65;;;1.00;;
51190;SDS011;37253;48.736;9.294;2023-03-23T05:47:18;1.80;;;1.20;;
51190;SDS011;37253;48.736;9.294;2023-03-23T05:49:18;1.00;;;0.90;;
51190;SDS011;37253;48.736;9.294;2023-03-23T05:51:19;2.97;;;0.90;;
51190;SDS011;37253;48.736;9.294;2023-03-23T05:53:19;2.75;;;1.00;;
51190;SDS011;37253;48.736;9.294;2023-03-23T05:55:20;1.10;;;0.85;;
51190;SDS011;37253;48.736;9.294;2023-03-23T05:57:20;1.80;;;0.88;;
51190;SDS011;37253;48.736;9.294;2023-03-23T05:59:21;2.03;;;0.90;;
51190;SDS011;37253;48.736;9.294;2023-03-23T06:01:22;1.20;;;0.90;;
51190;SDS011;37253;48.736;9.294;2023-03-23T06:03:23;2.25;;;1.10;;
51190;SDS011;37253;48.736;9.294;2023-03-23T06:05:23;1.67;;;1.00;;
51190;SDS011;37253;48.736;9.294;2023-03-23T06:07:25;2.58;;;1.02;;
51190;SDS011;37253;48.736;9.294;2023-03-23T06:09:25;2.70;;;0.85;;
51190;SDS011;37253;48.736;9.294;2023-03-23T06:11:26;2.90;;;0.93;;
51190;SDS011;37253;48.736;9.294;2023-03-23T06:13:26;5.93;;;1.00;;
51190;SDS011;37253;48.736;9.294;2023-03-23T06:15:27;1.13;;;1.02;;
51190;SDS011;37253;48.736;9.294;2023-03-23T06:17:29;1.77;;;1.00;;
51190;SDS011;37253;48.736;9.294;2023-03-23T06:19:29;7.07;;;1.15;;
51190;SDS011;37253;48.736;9.294;2023-03-23T06:21:32;1.90;;;1.10;;
51190;SDS011;37253;48.736;9.294;2023-03-23T06:25:34;1.10;;;0.90;;
51190;SDS011;37253;48.736;9.294;2023-03-23T06:27:34;4.95;;;1.00;;
51190;SDS011;37253;48.736;9.294;2023-03-23T06:29:35;1.27;;;1.00;;
51190;SDS011;37253;48.736;9.294;2023-03-23T06:31:40;3.30;;;1.02;;
51190;SDS011;37253;48.736;9.294;2023-03-23T06:33:42;2.92;;;1.15;;
51190;SDS011;37253;48.736;9.294;2023-03-23T06:35:43;1.42;;;0.90;;
51190;SDS011;37253;48.736;9.294;2023-03-23T06:37:43;4.40;;;0.88;;
51190;SDS011;37253;48.736;9.294;2023-03-23T06:39:44;1.48;;;0.90;;
51190;SDS011;37253;48.736;9.294;2023-03-23T06:41:44;1.90;;;0.90;;
51190;SDS011;37253;48.736;9.294;2023-03-23T06:43:45;1.55;;;1.00;;
51190;SDS011;37253;48.736;9.294;2023-03-23T06:45:46;4.68;;;1.10;;
51190;SDS011;37253;48.736;9.294;2023-03-23T06:47:46;3.05;;;0.98;;
51190;SDS011;37253;48.736;9.294;2023-03-23T06:49:48;1.95;;;0.90;;
51190;SDS011;37253;48.736;9.294;2023-03-23T06:51:48;4.15;;;1.20;;
51190;SDS011;37253;48.736;9.294;2023-03-23T06:53:49;1.23;;;0.80;;
51190;SDS011;37253;48.736;9.294;2023-03-23T06:55:50;1.98;;;0.98;;
51190;SDS011;37253;48.736;9.294;2023-03-23T06:57:51;1.10;;;0.90;;
51190;SDS011;37253;48.736;9.294;2023-03-23T06:59:51;1.67;;;1.00;;
51190;SDS011;37253;48.736;9.294;2023-03-23T07:01:51;1.63;;;0.90;;
51190;SDS011;37253;48.736;9.294;2023-03-23T07:03:52;1.02;;;0.90;;
51190;SDS011;37253;48.736;9.294;2023-03-23T07:05:52;1.35;;;0.98;;
51190;SDS011;37253;48.736;9.294;2023-03-23T07:07:53;4.35;;;1.30;;
51190;SDS011;37253;48.736;9.294;2023-03-23T07:09:53;2.03;;;0.90;;
51190;SDS011;37253;48.736;9.294;2023-03-23T07:11:55;2.03;;;1.00;;
51190;SDS011;37253;48.736;9.294;2023-03-23T07:13:55;2.67;;;1.20;;
51190;SDS011;37253;48.736;9.294;2023-03-23T07:15:56;4.70;;;1.23;;
51190;SDS011;37253;48.736;9.294;2023-03-23T07:17:57;1.23;;;0.90;;
51190;SDS011;37253;48.736;9.294;2023-03-23T07:19:57;8.75;;;1.55;;
51190;SDS011;37253;48.736;9.294;2023-03-23T07:21:57;3.63;;;1.00;;
51190;SDS011;37253;48.736;9.294;2023-03-23T07:23:58;8.45;;;1.20;;
51190;SDS011;37253;48.736;9.294;2023-03-23T07:25:58;3.90;;;1.20;;
51190;SDS011;37253;48.736;9.294;2023-03-23T07:27:59;3.20;;;1.02;;
51190;SDS011;37253;48.736;9.294;2023-03-23T07:30:01;6.00;;;1.20;;
51190;SDS011;37253;48.736;9.294;2023-03-23T07:32:01;4.70;;;1.45;;
51190;SDS011;37253;48.736;9.294;2023-03-23T07:34:02;4.70;;;1.55;;
51190;SDS011;37253;48.736;9.294;2023-03-23T07:36:03;8.27;;;1.40;;
51190;SDS011;37253;48.736;9.294;2023-03-23T07:38:04;13.63;;;1.80;;
51190;SDS011;37253;48.736;9.294;2023-03-23T07:40:05;7.53;;;1.52;;
51190;SDS011;37253;48.736;9.294;2023-03-23T07:42:14;4.70;;;1.40;;
51190;SDS011;37253;48.736;9.294;2023-03-23T07:44:15;6.63;;;1.27;;
51190;SDS011;37253;48.736;9.294;2023-03-23T07:46:15;2.50;;;1.30;;
51190;SDS011;37253;48.736;9.294;2023-03-23T07:48:16;6.68;;;1.52;;
51190;SDS011;37253;48.736;9.294;2023-03-23T07:50:16;3.38;;;1.55;;
51190;SDS011;37253;48.736;9.294;2023-03-23T07:52:17;7.70;;;1.60;;
51190;SDS011;37253;48.736;9.294;2023-03-23T07:54:18;6.45;;;1.48;;
51190;SDS011;37253;48.736;9.294;2023-03-23T07:56:18;4.78;;;1.35;;
51190;SDS011;37253;48.736;9.294;2023-03-23T07:58:19;9.40;;;1.30;;
51190;SDS011;37253;48.736;9.294;2023-03-23T08:00:21;5.93;;;1.63;;
51190;SDS011;37253;48.736;9.294;2023-03-23T08:02:23;3.85;;;1.38;;
51190;SDS011;37253;48.736;9.294;2023-03-23T08:04:24;9.32;;;1.77;;
51190;SDS011;37253;48.736;9.294;2023-03-23T08:06:25;8.18;;;1.60;;
51190;SDS011;37253;48.736;9.294;2023-03-23T08:08:25;10.43;;;2.20;;
51190;SDS011;37253;48.736;9.294;2023-03-23T08:10:26;14.13;;;1.77;;
51190;SDS011;37253;48.736;9.294;2023-03-23T08:12:26;7.13;;;2.28;;
51190;SDS011;37253;48.736;9.294;2023-03-23T08:14:27;18.00;;;2.17;;
51190;SDS011;37253;48.736;9.294;2023-03-23T08:16:28;7.18;;;1.98;;
51190;SDS011;37253;48.736;9.294;2023-03-23T08:18:29;10.30;;;2.33;;
51190;SDS011;37253;48.736;9.294;2023-03-23T08:20:30;9.73;;;2.15;;
51190;SDS011;37253;48.736;9.294;2023-03-23T08:22:31;10.32;;;2.13;;
51190;SDS011;37253;48.736;9.294;2023-03-23T08:24:31;7.63;;;1.98;;
51190;SDS011;37253;48.736;9.294;2023-03-23T08:26:35;10.55;;;1.98;;
51190;SDS011;37253;48.736;9.294;2023-03-23T08:28:36;14.95;;;2.15;;
51190;SDS011;37253;48.736;9.294;2023-03-23T08:30:38;10.05;;;2.00;;
51190;SDS011;37253;48.736;9.294;2023-03-23T08:32:38;8.65;;;2.10;;
51190;SDS011;37253;48.736;9.294;2023-03-23T08:34:39;10.40;;;2.50;;
51190;SDS011;37253;48.736;9.294;2023-03-23T08:36:41;7.95;;;1.83;;
51190;SDS011;37253;48.736;9.294;2023-03-23T08:38:44;10.73;;;2.20;;
51190;SDS011;37253;48.736;9.294;2023-03-23T08:40:44;6.72;;;1.77;;
51190;SDS011;37253;48.736;9.294;2023-03-23T08:42:45;7.30;;;2.08;;
51190;SDS011;37253;48.736;9.294;2023-03-23T08:44:46;8.32;;;2.15;;
51190;SDS011;37253;48.736;9.294;2023-03-23T08:46:46;12.00;;;1.92;;
51190;SDS011;37253;48.736;9.294;2023-03-23T08:48:46;7.18;;;1.98;;
51190;SDS011;37253;48.736;9.294;2023-03-23T08:50:46;7.13;;;1.90;;
51190;SDS011;37253;48.736;9.294;2023-03-23T08:52:47;6.72;;;1.98;;
51190;SDS011;37253;48.736;9.294;2023-03-23T08:54:48;6.97;;;1.85;;
51190;SDS011;37253;48.736;9.294;2023-03-23T08:56:49;8.18;;;2.22;;
51190;SDS011;37253;48.736;9.294;2023-03-23T08:58:49;11.55;;;2.70;;
51190;SDS011;37253;48.736;9.294;2023-03-23T09:00:49;6.07;;;1.95;;
51190;SDS011;37253;48.736;9.294;2023-03-23T09:02:51;7.30;;;1.95;;
51190;SDS011;37253;48.736;9.294;2023-03-23T09:04:53;8.50;;;2.08;;
51190;SDS011;37253;48.736;9.294;2023-03-23T09:06:54;10.75;;;2.53;;
51190;SDS011;37253;48.736;9.294;2023-03-23T09:08:55;4.05;;;1.80;;
51190;SDS011;37253;48.736;9.294;2023-03-23T09:10:59;9.48;;;2.00;;
51190;SDS011;37253;48.736;9.294;2023-03-23T09:12:59;7.65;;;2.05;;
51190;SDS011;37253;48.736;9.294;2023-03-23T09:15:00;6.35;;;1.95;;
51190;SDS011;37253;48.736;9.294;2023-03-23T09:17:03;6.80;;;1.90;;
51190;SDS011;37253;48.736;9.294;2023-03-23T09:19:03;5.05;;;1.58;;
51190;SDS011;37253;48.736;9.294;2023-03-23T09:21:04;6.70;;;1.95;;
51190;SDS011;37253;48.736;9.294;2023-03-23T09:23:05;5.57;;;1.67;;
51190;SDS011;37253;48.736;9.294;2023-03-23T09:25:06;7.85;;;2.08;;
51190;SDS011;37253;48.736;9.294;2023-03-23T09:27:07;4.43;;;1.70;;
51190;SDS011;37253;48.736;9.294;2023-03-23T09:29:08;7.57;;;1.85;;
51190;SDS011;37253;48.736;9.294;2023-03-23T09:31:08;7.90;;;1.77;;
51190;SDS011;37253;48.736;9.294;2023-03-23T09:33:08;5.38;;;1.85;;
51190;SDS011;37253;48.736;9.294;2023-03-23T09:35:09;3.40;;;1.60;;
51190;SDS011;37253;48.736;9.294;2023-03-23T09:37:11;5.27;;;1.50;;
51190;SDS011;37253;48.736;9.294;2023-03-23T09:39:13;3.97;;;1.67;;
51190;SDS011;37253;48.736;9.294;2023-03-23T09:43:34;7.07;;;1.60;;
51190;SDS011;37253;48.736;9.294;2023-03-23T09:50:00;9.90;;;1.60;;
51190;SDS011;37253;48.736;9.294;2023-03-23T09:52:15;4.53;;;1.77;;
51190;SDS011;37253;48.736;9.294;2023-03-23T09:54:21;5.88;;;1.77;;
51190;SDS011;37253;48.736;9.294;2023-03-23T09:56:25;6.68;;;1.50;;
51190;SDS011;37253;48.736;9.294;2023-03-23T09:58:35;5.30;;;1.80;;
51190;SDS011;37253;48.736;9.294;2023-03-23T10:00:41;6.68;;;1.60;;
51190;SDS011;37253;48.736;9.294;2023-03-23T10:02:52;7.82;;;1.50;;
51190;SDS011;37253;48.736;9.294;2023-03-23T10:05:07;4.90;;;1.35;;
51190;SDS011;37253;48.736;9.294;2023-03-23T10:07:20;4.05;;;1.40;;
51190;SDS011;37253;48.736;9.294;2023-03-23T10:09:22;3.50;;;1.42;;
51190;SDS011;37253;48.736;9.294;2023-03-23T10:16:02;9.68;;;1.38;;
51190;SDS011;37253;48.736;9.294;2023-03-23T10:18:08;2.20;;;1.05;;
51190;SDS011;37253;48.736;9.294;2023-03-23T10:23:02;4.78;;;1.23;;
51190;SDS011;37253;48.736;9.294;2023-03-23T10:27:19;5.25;;;1.50;;
51190;SDS011;37253;48.736;9.294;2023-03-23T10:29:28;5.03;;;1.33;;
51190;SDS011;37253;48.736;9.294;2023-03-23T10:38:24;4.93;;;1.50;;
51190;SDS011;37253;48.736;9.294;2023-03-23T10:40:29;3.97;;;1.27;;
51190;SDS011;37253;48.736;9.294;2023-03-23T10:42:34;5.00;;;1.30;;
51190;SDS011;37253;48.736;9.294;2023-03-23T10:44:36;4.07;;;1.42;;
51190;SDS011;37253;48.736;9.294;2023-03-23T10:48:46;3.70;;;1.38;;
51190;SDS011;37253;48.736;9.294;2023-03-23T10:50:49;2.55;;;1.10;;
51190;SDS011;37253;48.736;9.294;2023-03-23T10:52:52;4.85;;;1.50;;
51190;SDS011;37253;48.736;9.294;2023-03-23T10:54:57;1.85;;;1.15;;
51190;SDS011;37253;48.736;9.294;2023-03-23T10:57:11;3.05;;;1.10;;
51190;SDS011;37253;48.736;9.294;2023-03-23T10:59:27;2.63;;;1.02;;
51190;SDS011;37253;48.736;9.294;2023-03-23T11:01:30;4.85;;;1.00;;
51190;SDS011;37253;48.736;9.294;2023-03-23T11:03:42;5.87;;;1.17;;
51190;SDS011;37253;48.736;9.294;2023-03-23T11:05:47;5.05;;;1.23;;
51190;SDS011;37253;48.736;9.294;2023-03-23T11:07:52;6.00;;;1.10;;
51190;SDS011;37253;48.736;9.294;2023-03-23T11:09:55;5.40;;;1.20;;
51190;SDS011;37253;48.736;9.294;2023-03-23T11:11:57;3.85;;;0.90;;
51190;SDS011;37253;48.736;9.294;2023-03-23T11:13:59;3.17;;;1.10;;
51190;SDS011;37253;48.736;9.294;2023-03-23T11:16:22;5.00;;;1.17;;
51190;SDS011;37253;48.736;9.294;2023-03-23T11:18:25;3.10;;;1.08;;
51190;SDS011;37253;48.736;9.294;2023-03-23T11:20:41;1.55;;;0.80;;
51190;SDS011;37253;48.736;9.294;2023-03-23T11:22:43;1.83;;;1.00;;
51190;SDS011;37253;48.736;9.294;2023-03-23T11:24:45;2.80;;;1.00;;
51190;SDS011;37253;48.736;9.294;2023-03-23T11:26:47;3.00;;;1.00;;
51190;SDS011;37253;48.736;9.294;2023-03-23T11:28:51;4.35;;;1.10;;
51190;SDS011;37253;48.736;9.294;2023-03-23T11:31:11;2.78;;;1.20;;
51190;SDS011;37253;48.736;9.294;2023-03-23T11:33:12;2.85;;;1.02;;
51190;SDS011;37253;48.736;9.294;2023-03-23T11:35:17;2.85;;;1.23;;
51190;SDS011;37253;48.736;9.294;2023-03-23T11:39:34;1.88;;;0.98;;
51190;SDS011;37253;48.736;9.294;2023-03-23T11:41:46;4.05;;;0.90;;
51190;SDS011;37253;48.736;9.294;2023-03-23T11:43:47;3.13;;;0.90;;
51190;SDS011;37253;48.736;9.294;2023-03-23T11:46:05;4.65;;;1.17;;
51190;SDS011;37253;48.736;9.294;2023-03-23T11:48:20;3.40;;;1.10;;
51190;SDS011;37253;48.736;9.294;2023-03-23T11:55:26;2.20;;;0.90;;
51190;SDS011;37253;48.736;9.294;2023-03-23T11:57:30;5.90;;;1.10;;
51190;SDS011;37253;48.736;9.294;2023-03-23T11:59:33;7.22;;;1.05;;
51190;SDS011;37253;48.736;9.294;2023-03-23T12:01:52;3.40;;;0.80;;
51190;SDS011;37253;48.736;9.294;2023-03-23T12:04:00;1.73;;;0.98;;
51190;SDS011;37253;48.736;9.294;2023-03-23T12:06:10;10.23;;;1.10;;
51190;SDS011;37253;48.736;9.294;2023-03-23T12:10:32;2.38;;;0.90;;
51190;SDS011;37253;48.736;9.294;2023-03-23T12:12:44;1.88;;;0.90;;
51190;SDS011;37253;48.736;9.294;2023-03-23T12:15:25;2.38;;;0.98;;
51190;SDS011;37253;48.736;9.294;2023-03-23T12:27:11;2.45;;;0.80;;
51190;SDS011;37253;48.736;9.294;2023-03-23T12:29:24;3.03;;;0.80;;
51190;SDS011;37253;48.736;9.294;2023-03-23T12:34:06;5.03;;;0.90;;
51190;SDS011;37253;48.736;9.294;2023-03-23T12:38:48;3.42;;;0.98;;
51190;SDS011;37253;48.736;9.294;2023-03-23T12:47:44;5.40;;;1.00;;
51190;SDS011;37253;48.736;9.294;2023-03-23T12:49:48;3.20;;;1.33;;
51190;SDS011;37253;48.736;9.294;2023-03-23T12:54:26;1.80;;;0.82;;
51190;SDS011;37253;48.736;9.294;2023-03-23T12:56:33;2.47;;;0.82;;
51190;SDS011;37253;48.736;9.294;2023-03-23T12:58:39;3.42;;;0.90;;
51190;SDS011;37253;48.736;9.294;2023-03-23T13:00:56;2.05;;;0.80;;
51190;SDS011;37253;48.736;9.294;2023-03-23T13:03:07;1.15;;;0.68;;
51190;SDS011;37253;48.736;9.294;2023-03-23T13:07:28;1.58;;;0.85;;
51190;SDS011;37253;48.736;9.294;2023-03-23T13:09:43;1.48;;;0.80;;
51190;SDS011;37253;48.736;9.294;2023-03-23T13:11:48;2.95;;;0.90;;
51190;SDS011;37253;48.736;9.294;2023-03-23T13:13:53;2.30;;;0.80;;
51190;SDS011;37253;48.736;9.294;2023-03-23T13:16:00;1.33;;;0.88;;
51190;SDS011;37253;48.736;9.294;2023-03-23T13:18:08;1.30;;;0.82;;
51190;SDS011;37253;48.736;9.294;2023-03-23T13:24:50;2.20;;;0.77;;
51190;SDS011;37253;48.736;9.294;2023-03-23T13:26:59;2.25;;;1.00;;
51190;SDS011;37253;48.736;9.294;2023-03-23T13:29:22;2.33;;;0.90;;
51190;SDS011;37253;48.736;9.294;2023-03-23T13:31:25;1.13;;;0.75;;
51190;SDS011;37253;48.736;9.294;2023-03-23T13:33:31;1.65;;;1.00;;
51190;SDS011;37253;48.736;9.294;2023-03-23T13:37:34;6.38;;;1.20;;
51190;SDS011;37253;48.736;9.294;2023-03-23T13:39:55;1.35;;;0.70;;
51190;SDS011;37253;48.736;9.294;2023-03-23T13:44:16;3.53;;;0.90;;
51190;SDS011;37253;48.736;9.294;2023-03-23T13:48:20;0.93;;;0.70;;
51190;SDS011;37253;48.736;9.294;2023-03-23T13:52:46;4.82;;;0.85;;
51190;SDS011;37253;48.736;9.294;2023-03-23T13:54:52;1.10;;;0.80;;
51190;SDS011;37253;48.736;9.294;2023-03-23T13:57:20;1.85;;;1.05;;